createdAt,value
2018-01-29T00:01:01.226Z,5.00
2018-01-29T00:03:32.003Z,5.93
2018-01-29T00:06:02.218Z,6.63
2018-01-29T00:08:32.456Z,5.40
2018-01-29T00:11:02.818Z,6.40
2018-01-29T00:13:33.028Z,5.17
2018-01-29T00:16:03.513Z,5.33
2018-01-29T00:18:34.805Z,6.87
2018-01-29T00:21:05.009Z,5.83
2018-01-29T00:23:35.415Z,4.87
2018-01-29T00:26:05.715Z,6.03
2018-01-29T00:28:36.791Z,5.93
2018-01-29T00:31:07.172Z,7.67
2018-01-29T00:33:37.744Z,5.43
2018-01-29T00:36:08.420Z,5.77
2018-01-29T00:38:39.028Z,5.60
2018-01-29T00:41:09.363Z,3.80
2018-01-29T00:43:40.712Z,5.33
2018-01-29T00:46:10.981Z,4.83
2018-01-29T00:48:41.339Z,4.00
2018-01-29T00:51:11.783Z,5.43
2018-01-29T00:53:42.173Z,3.40
2018-01-29T00:56:12.505Z,4.20
2018-01-29T00:58:42.767Z,5.60
2018-01-29T01:01:13.176Z,3.73
2018-01-29T01:03:43.831Z,3.77
2018-01-29T01:06:14.205Z,4.37
2018-01-29T01:08:44.792Z,4.40
2018-01-29T01:11:14.984Z,3.53
2018-01-29T01:13:45.645Z,4.17
2018-01-29T01:16:16.070Z,5.13
2018-01-29T01:18:46.279Z,4.63
2018-01-29T01:21:16.599Z,3.10
2018-01-29T01:23:47.031Z,2.90
2018-01-29T01:26:17.332Z,5.13
2018-01-29T01:28:47.559Z,6.13
2018-01-29T01:31:17.864Z,3.93
2018-01-29T01:33:48.054Z,3.63
2018-01-29T01:36:18.394Z,3.93
2018-01-29T01:38:48.882Z,3.37
2018-01-29T01:41:19.362Z,2.43
2018-01-29T01:43:49.583Z,3.80
2018-01-29T01:46:20.604Z,3.87
2018-01-29T01:48:50.868Z,5.33
2018-01-29T01:51:28.682Z,3.53
2018-01-29T01:53:58.771Z,2.93
2018-01-29T01:56:29.404Z,2.53
2018-01-29T01:59:00.372Z,2.83
2018-01-29T02:01:30.524Z,2.70
2018-01-29T02:04:00.908Z,3.03
2018-01-29T02:06:31.851Z,3.10
2018-01-29T02:09:02.144Z,3.13
2018-01-29T02:11:32.740Z,4.13
2018-01-29T02:14:03.308Z,2.90
2018-01-29T02:16:33.608Z,3.00
2018-01-29T02:19:03.983Z,2.87
2018-01-29T02:21:34.454Z,3.30
2018-01-29T02:24:05.067Z,3.13
2018-01-29T02:26:35.644Z,4.33
2018-01-29T02:29:06.234Z,3.43
2018-01-29T02:31:37.017Z,3.50
2018-01-29T02:34:07.246Z,3.70
2018-01-29T02:36:37.625Z,3.23
2018-01-29T02:39:08.066Z,3.07
2018-01-29T02:41:38.298Z,3.47
2018-01-29T02:44:08.513Z,3.90
2018-01-29T02:46:38.920Z,3.70
2018-01-29T02:49:09.571Z,4.17
2018-01-29T02:51:39.832Z,3.37
2018-01-29T02:54:09.989Z,2.73
2018-01-29T02:56:40.326Z,2.80
2018-01-29T02:59:11.006Z,3.13
2018-01-29T03:01:41.375Z,3.60
2018-01-29T03:04:11.727Z,2.50
2018-01-29T03:06:41.935Z,3.67
2018-01-29T03:09:12.276Z,3.13
2018-01-29T03:11:42.417Z,2.43
2018-01-29T03:14:12.755Z,2.63
2018-01-29T03:16:43.183Z,2.30
2018-01-29T03:19:13.287Z,2.00
2018-01-29T03:21:43.708Z,2.37
2018-01-29T03:24:14.102Z,2.17
2018-01-29T03:26:44.410Z,2.40
2018-01-29T03:29:15.442Z,3.13
2018-01-29T03:31:46.716Z,3.27
2018-01-29T03:34:16.833Z,2.73
2018-01-29T03:36:47.081Z,2.73
2018-01-29T03:39:18.339Z,2.50
2018-01-29T03:41:48.514Z,3.07
2018-01-29T03:44:19.831Z,2.20
2018-01-29T03:46:50.129Z,3.00
2018-01-29T03:49:20.486Z,3.43
2018-01-29T03:51:51.407Z,5.37
2018-01-29T03:54:22.094Z,5.10
2018-01-29T03:56:52.110Z,4.00
2018-01-29T03:59:22.537Z,2.73
2018-01-29T04:01:52.718Z,3.73
2018-01-29T04:04:23.957Z,9.00
2018-01-29T04:06:54.437Z,3.70
2018-01-29T04:09:24.707Z,5.97
2018-01-29T04:11:54.865Z,7.67
2018-01-29T04:14:25.793Z,5.50
2018-01-29T04:16:55.974Z,7.23
2018-01-29T04:19:26.359Z,4.90
2018-01-29T04:21:56.447Z,5.43
2018-01-29T04:24:26.681Z,6.93
2018-01-29T04:26:56.888Z,5.47
2018-01-29T04:29:27.418Z,4.40
2018-01-29T04:31:57.497Z,5.00
2018-01-29T04:34:27.775Z,9.80
2018-01-29T04:36:57.885Z,5.40
2018-01-29T04:39:28.503Z,6.63
2018-01-29T04:41:58.701Z,5.97
2018-01-29T04:44:29.138Z,6.60
2018-01-29T04:46:59.310Z,7.67
2018-01-29T04:49:29.565Z,5.80
2018-01-29T04:52:00.211Z,5.63
2018-01-29T04:54:30.730Z,7.23
2018-01-29T04:57:00.946Z,4.53
2018-01-29T04:59:31.279Z,8.20
2018-01-29T05:02:01.589Z,4.43
2018-01-29T05:04:31.881Z,7.33
2018-01-29T05:07:02.709Z,4.80
2018-01-29T05:09:33.912Z,6.03
2018-01-29T05:12:04.520Z,6.13
2018-01-29T05:14:34.788Z,7.63
2018-01-29T05:17:05.015Z,6.63
2018-01-29T05:19:35.179Z,7.40
2018-01-29T05:22:06.571Z,5.23
2018-01-29T05:24:36.723Z,6.13
2018-01-29T05:27:06.879Z,8.43
2018-01-29T05:29:36.897Z,8.13
2018-01-29T05:32:07.003Z,6.43
2018-01-29T05:34:37.870Z,7.60
2018-01-29T05:37:08.164Z,7.30
2018-01-29T05:39:38.461Z,8.17
2018-01-29T05:42:08.923Z,7.20
2018-01-29T05:44:39.067Z,9.43
2018-01-29T05:47:09.506Z,10.10
2018-01-29T05:49:39.826Z,5.37
2018-01-29T05:52:09.840Z,9.03
2018-01-29T05:54:39.879Z,6.33
2018-01-29T05:57:09.800Z,6.57
2018-01-29T05:59:39.878Z,8.37
2018-01-29T06:02:09.839Z,6.67
2018-01-29T06:04:39.865Z,8.73
2018-01-29T06:07:09.829Z,7.63
2018-01-29T06:09:39.932Z,10.80
2018-01-29T06:12:10.487Z,8.07
2018-01-29T06:14:40.405Z,11.40
2018-01-29T06:17:10.455Z,8.83
2018-01-29T06:19:40.270Z,7.37
2018-01-29T06:22:10.084Z,9.27
2018-01-29T06:24:40.199Z,7.60
2018-01-29T06:27:10.276Z,10.43
2018-01-29T06:29:40.149Z,10.77
2018-01-29T06:32:10.218Z,12.83
2018-01-29T06:34:40.293Z,8.87
2018-01-29T06:37:10.133Z,8.53
2018-01-29T06:39:40.824Z,9.37
2018-01-29T06:42:10.781Z,12.53
2018-01-29T06:44:41.384Z,10.50
2018-01-29T06:47:11.497Z,8.87
2018-01-29T06:49:42.857Z,9.73
2018-01-29T06:52:12.760Z,9.83
2018-01-29T06:54:42.774Z,9.50
2018-01-29T06:57:13.433Z,12.47
2018-01-29T06:59:43.229Z,10.27
2018-01-29T07:02:13.345Z,9.63
2018-01-29T07:04:50.020Z,7.40
2018-01-29T07:07:19.896Z,15.77
2018-01-29T07:09:50.025Z,10.50
2018-01-29T07:12:20.033Z,15.13
2018-01-29T07:14:50.006Z,8.53
2018-01-29T07:17:19.880Z,10.00
2018-01-29T07:19:49.849Z,11.57
2018-01-29T07:22:20.632Z,9.70
2018-01-29T07:24:50.438Z,8.67
2018-01-29T07:27:20.423Z,9.40
2018-01-29T07:29:51.234Z,13.10
2018-01-29T07:32:21.103Z,8.13
2018-01-29T07:34:51.027Z,10.93
2018-01-29T07:37:22.301Z,6.90
2018-01-29T07:39:52.326Z,16.77
2018-01-29T07:42:22.483Z,15.20
2018-01-29T07:44:52.663Z,10.90
2018-01-29T07:47:22.639Z,13.73
2018-01-29T07:49:52.727Z,14.87
2018-01-29T07:52:23.317Z,12.33
2018-01-29T07:54:53.590Z,10.60
2018-01-29T07:57:24.608Z,11.23
2018-01-29T07:59:54.558Z,9.57
2018-01-29T08:02:24.523Z,13.20
2018-01-29T08:04:54.753Z,16.60
2018-01-29T08:07:24.646Z,14.60
2018-01-29T08:09:54.630Z,13.67
2018-01-29T08:12:24.683Z,9.77
2018-01-29T08:14:54.546Z,12.50
2018-01-29T08:17:25.344Z,10.63
2018-01-29T08:19:55.465Z,10.43
2018-01-29T08:22:25.476Z,11.40
2018-01-29T08:24:55.388Z,14.20
2018-01-29T08:27:25.385Z,16.77
2018-01-29T08:29:55.435Z,10.40
2018-01-29T08:32:25.683Z,15.97
2018-01-29T08:34:55.622Z,13.03
2018-01-29T08:37:25.931Z,12.33
2018-01-29T08:39:56.518Z,15.03
2018-01-29T08:42:26.682Z,9.17
2018-01-29T08:44:57.694Z,11.63
2018-01-29T08:47:27.903Z,10.70
2018-01-29T08:49:58.149Z,9.87
2018-01-29T08:52:28.496Z,10.23
2018-01-29T08:54:58.917Z,7.57
2018-01-29T08:57:28.737Z,10.73
2018-01-29T08:59:59.828Z,9.93
2018-01-29T09:02:30.038Z,9.47
2018-01-29T09:05:00.406Z,14.17
2018-01-29T09:07:31.429Z,12.50
2018-01-29T09:10:01.625Z,9.47
2018-01-29T09:12:31.981Z,5.80
2018-01-29T09:15:02.494Z,9.93
2018-01-29T09:17:33.100Z,7.60
2018-01-29T09:20:03.622Z,8.30
2018-01-29T09:22:33.801Z,9.40
2018-01-29T09:25:04.230Z,7.47
2018-01-29T09:27:34.719Z,10.47
2018-01-29T09:30:05.089Z,7.93
2018-01-29T09:32:36.130Z,5.97
2018-01-29T09:35:06.391Z,6.63
2018-01-29T09:37:36.542Z,5.57
2018-01-29T09:40:06.732Z,6.43
2018-01-29T09:42:36.887Z,6.33
2018-01-29T09:45:08.257Z,5.03
2018-01-29T09:47:39.087Z,7.87
2018-01-29T09:50:09.826Z,8.13
2018-01-29T09:52:40.869Z,7.60
2018-01-29T09:55:11.336Z,4.60
2018-01-29T09:57:41.372Z,6.57
2018-01-29T10:00:13.612Z,7.30
2018-01-29T10:02:44.331Z,11.13
2018-01-29T10:05:14.367Z,3.97
2018-01-29T10:07:45.409Z,6.07
2018-01-29T10:10:17.958Z,5.40
2018-01-29T10:12:48.093Z,4.17
2018-01-29T10:15:18.065Z,3.67
2018-01-29T10:17:47.918Z,10.70
2018-01-29T10:20:18.619Z,7.53
2018-01-29T10:22:48.607Z,5.47
2018-01-29T10:25:19.971Z,5.67
2018-01-29T10:27:50.133Z,4.43
2018-01-29T10:30:20.055Z,4.17
2018-01-29T10:32:49.866Z,6.83
2018-01-29T10:35:19.764Z,5.43
2018-01-29T10:37:49.691Z,3.83
2018-01-29T10:40:19.730Z,3.20
2018-01-29T10:42:49.624Z,4.57
2018-01-29T10:45:19.405Z,5.77
2018-01-29T10:47:49.285Z,6.87
2018-01-29T10:50:19.914Z,4.70
2018-01-29T10:52:50.480Z,4.87
2018-01-29T10:55:20.408Z,7.50
2018-01-29T10:57:50.520Z,4.03
2018-01-29T11:00:20.443Z,3.10
2018-01-29T11:02:50.551Z,4.23
2018-01-29T11:05:20.901Z,5.03
2018-01-29T11:07:50.715Z,3.70
2018-01-29T11:10:21.474Z,8.57
2018-01-29T11:12:51.792Z,4.77
2018-01-29T11:15:21.890Z,5.97
2018-01-29T11:17:51.709Z,5.43
2018-01-29T11:20:22.471Z,5.10
2018-01-29T11:22:52.418Z,5.17
2018-01-29T11:25:22.440Z,4.93
2018-01-29T11:27:53.058Z,4.43
2018-01-29T11:30:23.042Z,4.50
2018-01-29T11:32:53.040Z,5.70
2018-01-29T11:35:23.147Z,6.27
2018-01-29T11:37:53.548Z,4.20
2018-01-29T11:40:24.177Z,5.13
2018-01-29T11:42:54.061Z,9.63
2018-01-29T11:45:24.653Z,5.73
2018-01-29T11:47:56.129Z,6.97
2018-01-29T11:50:25.941Z,8.47
2018-01-29T11:52:55.748Z,6.43
2018-01-29T11:55:25.548Z,7.27
2018-01-29T11:57:55.642Z,16.33
2018-01-29T12:00:25.513Z,8.20
2018-01-29T12:02:55.658Z,5.90
2018-01-29T12:05:25.565Z,6.70
2018-01-29T12:07:56.339Z,7.27
2018-01-29T12:10:26.324Z,8.07
2018-01-29T12:12:56.916Z,6.43
2018-01-29T12:15:26.994Z,7.00
2018-01-29T12:17:57.140Z,11.03
2018-01-29T12:20:27.324Z,8.20
2018-01-29T12:22:57.220Z,9.63
2018-01-29T12:25:28.073Z,8.53
2018-01-29T12:27:58.871Z,8.10
2018-01-29T12:30:28.948Z,12.93
2018-01-29T12:32:59.002Z,7.73
2018-01-29T12:35:28.823Z,11.37
2018-01-29T12:37:58.849Z,9.33
2018-01-29T12:40:28.697Z,9.37
2018-01-29T12:42:58.681Z,10.93
2018-01-29T12:45:28.942Z,12.70
2018-01-29T12:47:58.825Z,8.63
2018-01-29T12:50:28.784Z,6.33
2018-01-29T12:52:58.606Z,12.13
2018-01-29T12:55:28.466Z,8.23
2018-01-29T12:57:58.385Z,10.60
2018-01-29T13:00:28.140Z,8.40
2018-01-29T13:02:58.111Z,11.43
2018-01-29T13:05:28.175Z,9.37
2018-01-29T13:07:58.165Z,9.27
2018-01-29T13:10:28.089Z,8.33
2018-01-29T13:12:57.966Z,9.50
2018-01-29T13:15:28.003Z,15.87
2018-01-29T13:17:58.584Z,11.57
2018-01-29T13:20:28.582Z,10.77
2018-01-29T13:22:58.916Z,11.60
2018-01-29T13:25:28.998Z,10.63
2018-01-29T13:27:58.889Z,14.87
2018-01-29T13:30:28.781Z,13.77
2018-01-29T13:32:58.877Z,10.53
2018-01-29T13:35:28.955Z,8.53
2018-01-29T13:37:58.953Z,10.43
2018-01-29T13:40:28.766Z,7.13
2018-01-29T13:42:58.868Z,11.30
2018-01-29T13:45:28.684Z,14.40
2018-01-29T13:47:58.581Z,9.20
2018-01-29T13:50:28.381Z,10.03
2018-01-29T13:52:58.233Z,8.40
2018-01-29T13:55:28.029Z,9.83
2018-01-29T13:57:57.881Z,9.77
2018-01-29T14:00:28.740Z,10.00
2018-01-29T14:02:59.361Z,8.33
2018-01-29T14:05:29.432Z,10.03
2018-01-29T14:07:59.584Z,13.73
2018-01-29T14:10:29.561Z,10.70
2018-01-29T14:13:00.189Z,10.63
2018-01-29T14:15:30.159Z,10.90
2018-01-29T14:18:00.180Z,14.47
2018-01-29T14:20:30.136Z,9.70
2018-01-29T14:22:59.965Z,7.97
2018-01-29T14:25:29.986Z,10.70
2018-01-29T14:28:00.130Z,11.40
2018-01-29T14:30:30.145Z,9.30
2018-01-29T14:33:00.336Z,10.77
2018-01-29T14:35:30.157Z,8.20
2018-01-29T14:38:00.044Z,10.77
2018-01-29T14:40:31.105Z,8.90
2018-01-29T14:43:01.061Z,9.90
2018-01-29T14:45:30.980Z,11.20
2018-01-29T14:48:01.004Z,9.40
2018-01-29T14:50:31.285Z,9.73
2018-01-29T14:53:01.284Z,8.17
2018-01-29T14:55:31.166Z,10.37
2018-01-29T14:58:01.082Z,11.60
2018-01-29T15:00:31.032Z,10.83
2018-01-29T15:03:01.828Z,8.13
2018-01-29T15:05:31.929Z,7.17
2018-01-29T15:08:01.738Z,9.60
2018-01-29T15:10:31.806Z,7.57
2018-01-29T15:13:01.927Z,8.97
2018-01-29T15:15:33.112Z,10.23
2018-01-29T15:18:03.008Z,9.93
2018-01-29T15:20:33.109Z,8.73
2018-01-29T15:23:03.837Z,9.93
2018-01-29T15:25:34.435Z,8.37
2018-01-29T15:28:04.407Z,4.27
2018-01-29T15:30:34.376Z,12.33
2018-01-29T15:33:04.357Z,12.93
2018-01-29T15:35:34.364Z,10.27
2018-01-29T15:38:04.261Z,9.10
2018-01-29T15:40:34.829Z,5.47
2018-01-29T15:43:04.788Z,7.60
2018-01-29T15:45:34.770Z,6.93
2018-01-29T15:48:04.871Z,6.33
2018-01-29T15:50:34.729Z,7.27
2018-01-29T15:53:04.764Z,7.57
2018-01-29T15:55:35.475Z,9.17
2018-01-29T15:58:05.378Z,6.43
2018-01-29T16:00:35.209Z,7.90
2018-01-29T16:03:05.144Z,10.90
2018-01-29T16:05:35.094Z,10.63
2018-01-29T16:08:05.104Z,5.77
2018-01-29T16:10:35.834Z,6.17
2018-01-29T16:13:06.638Z,5.87
2018-01-29T16:15:36.677Z,7.00
2018-01-29T16:18:06.639Z,7.33
2018-01-29T16:20:36.647Z,5.03
2018-01-29T16:23:06.760Z,7.40
2018-01-29T16:25:36.805Z,6.47
2018-01-29T16:28:06.801Z,5.17
2018-01-29T16:30:36.717Z,6.20
2018-01-29T16:33:06.708Z,6.60
2018-01-29T16:35:36.862Z,10.13
2018-01-29T16:38:07.029Z,9.73
2018-01-29T16:40:37.496Z,6.97
2018-01-29T16:43:07.347Z,9.97
2018-01-29T16:45:37.289Z,6.67
2018-01-29T16:48:07.605Z,7.47
2018-01-29T16:50:37.985Z,9.67
2018-01-29T16:53:07.975Z,10.17
2018-01-29T16:55:40.072Z,7.13
2018-01-29T16:58:10.117Z,7.77
2018-01-29T17:00:40.187Z,8.13
2018-01-29T17:03:11.153Z,8.07
2018-01-29T17:05:41.322Z,5.80
2018-01-29T17:08:11.812Z,7.77
2018-01-29T17:10:42.005Z,5.50
2018-01-29T17:13:13.201Z,11.17
2018-01-29T17:15:43.925Z,9.40
2018-01-29T17:18:14.493Z,9.30
2018-01-29T17:20:45.007Z,6.97
2018-01-29T17:23:15.208Z,7.63
2018-01-29T17:25:45.468Z,10.20
2018-01-29T17:28:15.649Z,7.73
2018-01-29T17:30:45.426Z,7.73
2018-01-29T17:33:15.433Z,9.77
2018-01-29T17:35:45.436Z,11.63
2018-01-29T17:38:15.606Z,8.23
2018-01-29T17:40:45.605Z,7.60
2018-01-29T17:43:15.747Z,8.23
2018-01-29T17:45:46.548Z,9.67
2018-01-29T17:48:16.541Z,8.77
2018-01-29T17:50:46.421Z,7.17
2018-01-29T17:53:16.392Z,8.77
2018-01-29T17:55:46.590Z,5.97
2018-01-29T17:58:16.617Z,9.40
2018-01-29T18:00:46.471Z,6.60
2018-01-29T18:03:16.486Z,9.10
2018-01-29T18:05:46.494Z,6.63
2018-01-29T18:08:16.559Z,5.17
2018-01-29T18:10:46.368Z,7.57
2018-01-29T18:13:17.216Z,5.20
2018-01-29T18:15:47.183Z,7.97
2018-01-29T18:18:18.417Z,5.33
2018-01-29T18:20:48.763Z,6.37
2018-01-29T18:23:18.977Z,5.53
2018-01-29T18:25:49.085Z,7.20
2018-01-29T18:28:19.270Z,7.23
2018-01-29T18:30:49.270Z,8.77
2018-01-29T18:33:19.354Z,8.03
2018-01-29T18:35:49.630Z,6.23
2018-01-29T18:38:19.596Z,9.47
2018-01-29T18:40:49.787Z,7.97
2018-01-29T18:43:19.540Z,6.63
2018-01-29T18:45:49.644Z,7.53
2018-01-29T18:48:19.746Z,9.00
2018-01-29T18:50:52.170Z,6.20
2018-01-29T18:53:22.264Z,5.37
2018-01-29T18:55:53.094Z,7.07
2018-01-29T18:58:23.987Z,5.27
2018-01-29T19:00:54.130Z,7.03
2018-01-29T19:03:24.434Z,8.67
2018-01-29T19:05:54.502Z,6.10
2018-01-29T19:08:25.448Z,6.33
2018-01-29T19:10:56.098Z,8.40
2018-01-29T19:13:26.109Z,9.47
2018-01-29T19:15:56.034Z,4.87
2018-01-29T19:18:26.052Z,6.30
2018-01-29T19:20:56.970Z,8.70
2018-01-29T19:23:27.802Z,6.00
2018-01-29T19:26:00.052Z,7.40
2018-01-29T19:28:29.995Z,6.10
2018-01-29T19:31:00.091Z,3.57
2018-01-29T19:33:30.502Z,4.60
2018-01-29T19:36:01.476Z,5.20
2018-01-29T19:38:32.351Z,5.00
2018-01-29T19:41:07.448Z,4.33
2018-01-29T19:43:37.883Z,5.17
2018-01-29T19:46:08.261Z,5.70
2018-01-29T19:48:38.563Z,3.80
2018-01-29T19:51:08.896Z,5.97
2018-01-29T19:53:39.603Z,3.33
2018-01-29T19:56:09.956Z,7.27
2018-01-29T19:58:40.118Z,9.53
2018-01-29T20:01:11.663Z,6.97
2018-01-29T20:03:46.388Z,6.80
2018-01-29T20:06:17.526Z,4.90
2018-01-29T20:08:48.093Z,4.03
2018-01-29T20:11:18.511Z,5.03
2018-01-29T20:13:48.914Z,5.30
2018-01-29T20:16:19.325Z,7.03
2018-01-29T20:18:50.127Z,4.60
2018-01-29T20:21:20.322Z,4.03
2018-01-29T20:23:51.231Z,6.47
2018-01-29T20:26:21.327Z,3.40
2018-01-29T20:28:52.484Z,6.43
2018-01-29T20:31:22.787Z,5.20
2018-01-29T20:33:53.156Z,3.80
2018-01-29T20:36:24.069Z,5.13
2018-01-29T20:38:54.342Z,9.03
2018-01-29T20:41:26.449Z,9.73
2018-01-29T20:43:57.061Z,4.93
2018-01-29T20:46:28.115Z,6.40
2018-01-29T20:48:58.246Z,5.33
2018-01-29T20:51:28.876Z,6.27
2018-01-29T20:53:59.039Z,6.57
2018-01-29T20:56:30.868Z,5.87
2018-01-29T20:59:01.102Z,4.27
2018-01-29T21:01:31.384Z,7.30
2018-01-29T21:04:01.372Z,5.43
2018-01-29T21:06:31.578Z,9.10
2018-01-29T21:09:01.721Z,7.77
2018-01-29T21:11:32.223Z,8.17
2018-01-29T21:14:02.222Z,6.17
2018-01-29T21:16:33.169Z,8.23
2018-01-29T21:19:03.014Z,7.83
2018-01-29T21:21:34.138Z,7.83
2018-01-29T21:24:04.386Z,10.20
2018-01-29T21:26:35.351Z,6.57
2018-01-29T21:29:05.591Z,10.50
2018-01-29T21:31:36.098Z,10.67
2018-01-29T21:34:06.508Z,7.83
2018-01-29T21:36:37.821Z,9.50
2018-01-29T21:39:08.331Z,9.13
2018-01-29T21:41:40.760Z,12.67
2018-01-29T21:44:10.750Z,10.90
2018-01-29T21:46:41.431Z,11.77
2018-01-29T21:49:12.710Z,17.23
2018-01-29T21:51:42.871Z,15.37
2018-01-29T21:54:13.289Z,9.37
2018-01-29T21:56:43.615Z,14.30
2018-01-29T21:59:13.936Z,12.70
2018-01-29T22:01:44.032Z,11.57
2018-01-29T22:04:13.960Z,21.83
2018-01-29T22:06:44.109Z,18.03
2018-01-29T22:09:14.546Z,17.27
2018-01-29T22:11:44.480Z,18.57
2018-01-29T22:14:15.417Z,23.47
2018-01-29T22:16:45.329Z,27.53
2018-01-29T22:19:15.258Z,27.23
2018-01-29T22:21:45.262Z,31.10
2018-01-29T22:24:15.204Z,32.57
2018-01-29T22:26:45.908Z,22.20
2018-01-29T22:29:16.716Z,22.60
2018-01-29T22:31:46.747Z,20.30
2018-01-29T22:34:16.749Z,18.30
2018-01-29T22:36:47.543Z,22.93
2018-01-29T22:39:17.748Z,25.97
2018-01-29T22:41:48.043Z,24.60
2018-01-29T22:44:19.044Z,26.60
2018-01-29T22:46:49.303Z,18.23
2018-01-29T22:49:20.102Z,23.93
2018-01-29T22:51:50.313Z,14.43
2018-01-29T22:54:20.224Z,18.07
2018-01-29T22:56:50.049Z,21.67
2018-01-29T22:59:20.194Z,19.73
2018-01-29T23:01:50.129Z,16.73
2018-01-29T23:04:21.092Z,13.80
2018-01-29T23:06:51.031Z,16.00
2018-01-29T23:09:20.942Z,17.97
2018-01-29T23:11:51.010Z,16.27
2018-01-29T23:14:21.720Z,14.10
2018-01-29T23:16:51.774Z,24.20
2018-01-29T23:19:21.669Z,16.50
2018-01-29T23:21:52.425Z,17.30
2018-01-29T23:24:22.459Z,12.83
2018-01-29T23:26:52.484Z,15.37
2018-01-29T23:29:22.520Z,12.33
2018-01-29T23:31:52.499Z,18.77
2018-01-29T23:34:23.098Z,12.17
2018-01-29T23:36:53.091Z,13.47
2018-01-29T23:39:23.064Z,15.73
2018-01-29T23:41:53.116Z,11.57
2018-01-29T23:44:22.617Z,11.83
2018-01-29T23:46:52.838Z,13.17
2018-01-29T23:49:22.835Z,10.17
2018-01-29T23:51:52.627Z,12.37
2018-01-29T23:54:23.208Z,11.20
2018-01-29T23:56:53.046Z,11.63
2018-01-29T23:59:22.920Z,9.57
